Time;durP1;ratioP1;P1;durP2;ratioP2;P2;SDS_P1;SDS_P2;PMS_P1;PMS_P2;Temp;Humidity;BMP_temperature;BMP_pressure;BME280_temperature;BME280_humidity;BME280_pressure;Samples;Min_cycle;Max_cycle;Signal;HPM_P1;HPM_P2
2021/09/25 00:00:41;;;;;;;3.05;1.40;;;;;;;10.95;72.40;98508.78;1678801;85;21042;-34
2021/09/25 00:03:08;;;;;;;2.85;1.10;;;;;;;10.97;72.24;98516.75;1678863;85;21021;-34
2021/09/25 00:05:37;;;;;;;3.50;1.15;;;;;;;10.97;72.28;98515.97;1678720;85;22082;-34
2021/09/25 00:08:04;;;;;;;3.00;1.10;;;;;;;10.95;72.29;98516.34;1679749;82;21025;-34
2021/09/25 00:10:31;;;;;;;5.33;1.25;;;;;;;10.95;72.26;98514.20;1686470;85;20996;-34
2021/09/25 00:12:58;;;;;;;7.15;1.10;;;;;;;10.99;72.11;98517.13;1721654;83;21025;-34
2021/09/25 00:15:25;;;;;;;3.98;1.12;;;;;;;11.01;72.06;98514.83;1686468;85;21025;-34
2021/09/25 00:17:52;;;;;;;1.67;1.10;;;;;;;11.01;72.17;98515.40;1721186;82;21125;-34
2021/09/25 00:20:19;;;;;;;3.15;1.12;;;;;;;11.01;72.13;98511.33;1686702;84;20968;-34
2021/09/25 00:22:45;;;;;;;2.77;1.02;;;;;;;11.01;71.98;98512.69;1747577;80;21046;-34
2021/09/25 00:25:12;;;;;;;3.30;0.95;;;;;;;11.06;71.79;98529.95;1715139;83;21004;-34
2021/09/25 00:27:38;;;;;;;3.42;1.27;;;;;;;11.09;71.73;98537.31;1751391;82;21068;-34
2021/09/25 00:30:08;;;;;;;4.03;1.20;;;;;;;11.08;71.80;98541.20;1751130;82;21148;-34
2021/09/25 00:32:34;;;;;;;3.58;0.95;;;;;;;11.07;71.80;98539.64;1751692;82;21069;-34
2021/09/25 00:35:01;;;;;;;2.50;1.00;;;;;;;11.04;71.76;98543.10;1722244;80;21039;-34
2021/09/25 00:37:27;;;;;;;4.15;1.30;;;;;;;11.07;71.52;98555.92;1723811;82;21045;-34
2021/09/25 00:39:54;;;;;;;3.15;1.00;;;;;;;11.08;71.48;98551.48;1742941;82;21266;-34
2021/09/25 00:42:20;;;;;;;2.87;1.10;;;;;;;11.06;71.33;98547.58;1743324;82;21151;-34
2021/09/25 00:44:47;;;;;;;2.95;1.02;;;;;;;11.03;71.57;98556.48;1743019;82;21581;-34
2021/09/25 00:47:13;;;;;;;3.72;1.10;;;;;;;11.02;71.60;98553.00;1738065;82;20997;-34
2021/09/25 00:49:40;;;;;;;3.87;1.00;;;;;;;11.04;71.54;98553.95;1682040;85;21051;-34
2021/09/25 00:52:07;;;;;;;2.77;0.85;;;;;;;11.06;71.62;98544.87;1719065;82;21033;-34
2021/09/25 00:54:34;;;;;;;6.15;1.00;;;;;;;11.08;71.47;98549.34;1718795;83;21732;-34
2021/09/25 00:57:00;;;;;;;2.40;0.82;;;;;;;11.06;71.36;98553.78;1690308;83;20957;-34
2021/09/25 00:59:27;;;;;;;2.72;1.30;;;;;;;11.04;71.54;98552.59;1748838;81;21013;-34
2021/09/25 01:01:53;;;;;;;1.98;1.00;;;;;;;11.05;71.51;98556.30;1749103;82;21481;-34
2021/09/25 01:04:20;;;;;;;4.33;1.30;;;;;;;11.08;71.55;98554.77;1723864;80;21050;-34
2021/09/25 01:06:47;;;;;;;3.17;1.07;;;;;;;11.11;71.62;98562.13;1719289;83;21094;-34
2021/09/25 01:09:13;;;;;;;3.62;1.00;;;;;;;11.12;71.38;98563.11;1718811;83;20993;-34
2021/09/25 01:11:40;;;;;;;4.80;1.20;;;;;;;11.10;71.44;98570.06;1681957;85;21111;-34
2021/09/25 01:14:07;;;;;;;4.60;1.27;;;;;;;11.06;71.72;98574.70;1719115;82;21495;-34
2021/09/25 01:16:33;;;;;;;2.47;1.00;;;;;;;11.05;72.00;98569.86;1719383;83;21052;-34
2021/09/25 01:19:00;;;;;;;3.47;1.42;;;;;;;11.06;72.03;98571.99;1719083;83;21882;-34
2021/09/25 01:21:26;;;;;;;1.67;0.90;;;;;;;11.06;72.16;98571.41;1682326;83;20964;-34
2021/09/25 01:23:53;;;;;;;4.35;1.32;;;;;;;11.00;72.08;98572.15;1718798;82;21033;-34
2021/09/25 01:26:20;;;;;;;2.33;0.93;;;;;;;10.95;72.41;98569.23;1719332;83;21010;-34
2021/09/25 01:28:47;;;;;;;5.65;1.32;;;;;;;10.95;72.48;98572.52;1719056;83;21080;-34
2021/09/25 01:31:14;;;;;;;2.70;1.05;;;;;;;11.00;72.39;98577.00;1718880;82;21579;-34
2021/09/25 01:33:44;;;;;;;4.87;1.25;;;;;;;11.05;72.23;98577.21;1718948;82;21020;-34
2021/09/25 01:36:11;;;;;;;4.03;1.40;;;;;;;11.03;72.27;98578.19;1719341;83;20970;-34
2021/09/25 01:38:38;;;;;;;2.00;1.00;;;;;;;11.03;72.41;98578.19;1736497;82;21517;-34
2021/09/25 01:41:05;;;;;;;6.15;1.20;;;;;;;11.05;72.40;98582.63;1747385;80;21049;-34
2021/09/25 01:43:32;;;;;;;3.05;1.27;;;;;;;11.05;72.43;98583.99;1710376;83;21160;-34
2021/09/25 01:45:58;;;;;;;5.45;1.30;;;;;;;11.05;72.38;98581.28;1710568;83;21448;-34
2021/09/25 01:48:25;;;;;;;3.35;1.07;;;;;;;11.06;72.32;98584.20;1751171;82;21013;-34
2021/09/25 01:50:52;;;;;;;6.62;1.20;;;;;;;11.06;72.19;98582.27;1751164;82;21484;-34
2021/09/25 01:53:21;;;;;;;3.55;1.40;;;;;;;11.02;72.11;98584.19;1715227;83;21550;-35
2021/09/25 01:55:49;;;;;;;3.30;1.07;;;;;;;10.98;72.06;98590.18;1751557;82;21161;-35
2021/09/25 01:58:16;;;;;;;3.47;1.27;;;;;;;10.99;71.92;98597.74;1751185;81;20989;-35
2021/09/25 02:00:43;;;;;;;2.30;0.93;;;;;;;10.99;72.02;98597.14;1715349;83;21566;-36
2021/09/25 02:03:11;;;;;;;3.05;0.93;;;;;;;10.98;72.00;98608.38;1723878;80;20946;-35
2021/09/25 02:05:37;;;;;;;2.42;1.25;;;;;;;10.97;72.13;98613.60;1721435;83;21065;-35
2021/09/25 02:08:05;;;;;;;5.50;1.42;;;;;;;10.96;72.02;98616.89;1721280;83;21900;-36
2021/09/25 02:10:32;;;;;;;1.80;1.05;;;;;;;10.97;71.93;98626.59;1721480;83;21492;-35
2021/09/25 02:12:58;;;;;;;4.25;1.22;;;;;;;10.99;71.69;98630.28;1721241;83;21016;-36
2021/09/25 02:15:25;;;;;;;2.47;1.17;;;;;;;11.03;71.64;98629.72;1686701;85;21026;-35
2021/09/25 02:17:51;;;;;;;2.67;0.98;;;;;;;11.01;71.76;98634.73;1721208;83;21037;-35
2021/09/25 02:20:18;;;;;;;4.33;1.42;;;;;;;11.00;71.86;98634.53;1686726;85;21085;-35
2021/09/25 02:22:44;;;;;;;3.40;0.90;;;;;;;11.00;71.76;98638.02;1686598;85;21076;-36
2021/09/25 02:25:11;;;;;;;4.65;1.25;;;;;;;11.02;71.77;98633.59;1722513;80;21025;-35
2021/09/25 02:27:41;;;;;;;3.92;1.32;;;;;;;11.05;71.79;98641.73;1721186;82;20973;-35
2021/09/25 02:30:11;;;;;;;4.87;1.62;;;;;;;11.08;71.59;98650.48;1721513;83;20989;-35
2021/09/25 02:32:38;;;;;;;5.30;1.40;;;;;;;11.05;71.62;98645.80;1721452;83;21084;-35
2021/09/25 02:35:06;;;;;;;3.52;0.90;;;;;;;11.03;71.76;98651.42;1721259;83;21548;-35
2021/09/25 02:37:33;;;;;;;7.12;1.35;;;;;;;11.03;71.67;98655.48;1724160;82;21542;-35
2021/09/25 02:39:59;;;;;;;2.92;0.90;;;;;;;11.04;71.43;98658.38;1743392;82;21024;-35
2021/09/25 02:42:26;;;;;;;3.77;1.27;;;;;;;11.08;71.49;98664.63;1743349;82;21033;-35
2021/09/25 02:44:52;;;;;;;5.80;1.40;;;;;;;11.08;71.44;98655.12;1742940;81;21101;-36
2021/09/25 02:47:19;;;;;;;4.35;0.95;;;;;;;11.07;71.39;98659.77;1721785;82;21077;-36
2021/09/25 02:49:45;;;;;;;2.40;1.10;;;;;;;11.04;71.28;98673.30;1713639;82;21069;-35
2021/09/25 02:52:11;;;;;;;2.15;0.90;;;;;;;11.04;71.44;98670.01;1679738;84;21820;-35
2021/09/25 02:54:38;;;;;;;3.17;1.20;;;;;;;11.09;71.52;98679.14;1679117;85;21495;-36
2021/09/25 02:57:04;;;;;;;4.47;1.32;;;;;;;11.07;71.64;98687.48;1713522;83;21151;-35
2021/09/25 02:59:31;;;;;;;5.22;1.50;;;;;;;11.05;71.84;98696.55;1679311;85;21084;-35
2021/09/25 03:01:57;;;;;;;5.40;1.10;;;;;;;11.05;71.88;98698.69;1738285;82;20990;-36
2021/09/25 03:04:24;;;;;;;3.10;1.57;;;;;;;11.08;71.84;98709.38;1743488;81;21002;-35
2021/09/25 03:06:51;;;;;;;2.37;0.82;;;;;;;11.11;71.73;98708.61;1743251;82;21523;-35
2021/09/25 03:09:17;;;;;;;4.78;1.15;;;;;;;11.09;71.50;98708.98;1743455;82;21109;-35
2021/09/25 03:11:43;;;;;;;5.87;1.07;;;;;;;11.05;71.64;98711.48;1707446;84;20982;-35
2021/09/25 03:14:10;;;;;;;1.85;1.07;;;;;;;11.03;71.59;98716.52;1707852;84;21509;-36
2021/09/25 03:16:37;;;;;;;3.60;1.10;;;;;;;11.03;71.73;98719.23;1743051;82;21038;-36
2021/09/25 03:19:03;;;;;;;7.28;1.30;;;;;;;11.09;71.52;98720.41;1694958;84;21610;-35
2021/09/25 03:21:30;;;;;;;2.77;1.07;;;;;;;11.11;71.45;98722.18;1679033;85;21178;-35
2021/09/25 03:23:56;;;;;;;3.27;1.20;;;;;;;11.10;71.52;98725.47;1679361;85;20980;-35
2021/09/25 03:26:22;;;;;;;4.85;1.20;;;;;;;11.09;71.44;98721.77;1713568;83;21528;-36
2021/09/25 03:28:49;;;;;;;6.65;1.10;;;;;;;11.09;71.45;98723.91;1713539;83;21508;-35
2021/09/25 03:31:15;;;;;;;4.70;1.20;;;;;;;11.14;71.28;98726.27;1713809;83;21120;-35
2021/09/25 03:33:42;;;;;;;3.70;1.52;;;;;;;11.19;70.96;98729.20;1679308;85;21104;-35
2021/09/25 03:36:08;;;;;;;4.72;1.17;;;;;;;11.14;70.99;98740.41;1713650;83;21022;-35
2021/09/25 03:38:35;;;;;;;3.42;1.10;;;;;;;11.12;70.94;98752.22;1692005;84;21052;-36
2021/09/25 03:41:01;;;;;;;4.22;1.12;;;;;;;11.07;70.90;98756.64;1700251;84;21025;-36
2021/09/25 03:43:28;;;;;;;5.53;1.30;;;;;;;11.03;71.06;98760.70;1695080;84;21065;-35
2021/09/25 03:45:54;;;;;;;2.33;0.90;;;;;;;11.05;70.99;98768.44;1694677;84;21167;-35
2021/09/25 03:48:21;;;;;;;4.83;1.30;;;;;;;11.07;70.90;98767.50;1688268;83;21036;-35
2021/09/25 03:50:47;;;;;;;7.47;1.25;;;;;;;11.04;70.81;98760.88;1664288;86;21019;-35
2021/09/25 03:53:14;;;;;;;3.75;1.25;;;;;;;11.01;70.91;98758.92;1642482;87;21091;-36
2021/09/25 03:55:40;;;;;;;3.58;1.30;;;;;;;11.01;70.87;98763.56;1642894;86;21071;-36
2021/09/25 03:58:06;;;;;;;2.37;1.00;;;;;;;11.02;70.97;98769.20;1642341;87;21804;-36
2021/09/25 04:00:33;;;;;;;5.87;1.10;;;;;;;11.07;70.88;98772.92;1642318;87;21028;-35
2021/09/25 04:02:59;;;;;;;2.40;1.40;;;;;;;11.07;70.84;98774.28;1642528;87;20964;-35
2021/09/25 04:05:26;;;;;;;1.77;0.93;;;;;;;11.06;70.73;98771.36;1642476;87;21474;-36
2021/09/25 04:07:52;;;;;;;3.90;1.07;;;;;;;11.02;70.89;98780.05;1642348;87;21079;-35
2021/09/25 04:10:18;;;;;;;5.47;1.07;;;;;;;11.01;70.90;98774.42;1642309;87;21061;-35
2021/09/25 04:12:45;;;;;;;7.22;1.35;;;;;;;11.05;70.86;98783.36;1627476;88;21515;-36
2021/09/25 04:15:11;;;;;;;2.95;1.12;;;;;;;10.79;70.97;98739.59;1627569;88;21523;-35
2021/09/25 04:17:38;;;;;;;4.72;1.30;;;;;;;11.12;70.93;98791.56;1627758;86;21069;-36
2021/09/25 04:20:07;;;;;;;3.85;1.10;;;;;;;11.13;70.81;98794.48;1627664;86;21067;-35
2021/09/25 04:22:33;;;;;;;6.00;1.35;;;;;;;11.15;70.50;98801.65;1638302;86;21812;-36
2021/09/25 04:24:59;;;;;;;4.25;1.30;;;;;;;11.16;70.42;98806.70;1653365;86;21600;-35
2021/09/25 04:27:29;;;;;;;4.95;1.10;;;;;;;11.15;70.34;98819.28;1634017;86;21015;-35
2021/09/25 04:29:54;;;;;;;2.65;1.10;;;;;;;11.13;70.23;98816.97;1627333;86;21052;-35
2021/09/25 04:32:20;;;;;;;3.77;1.20;;;;;;;11.09;70.46;98822.92;1627663;88;21618;-36
2021/09/25 04:34:47;;;;;;;4.05;1.20;;;;;;;11.07;70.49;98824.46;1652352;86;21093;-35
2021/09/25 04:37:13;;;;;;;4.80;1.50;;;;;;;11.06;70.59;98829.68;1652694;86;21087;-36
2021/09/25 04:39:40;;;;;;;3.95;1.30;;;;;;;11.06;70.47;98830.46;1654348;86;21067;-35
2021/09/25 04:42:06;;;;;;;6.87;1.27;;;;;;;11.07;70.55;98838.02;1654345;86;21089;-35
2021/09/25 04:44:33;;;;;;;4.12;1.47;;;;;;;11.08;70.60;98835.52;1654077;86;21108;-35
2021/09/25 04:46:59;;;;;;;6.33;1.22;;;;;;;11.06;70.63;98841.88;1631310;85;21800;-35
2021/09/25 04:49:26;;;;;;;4.03;1.22;;;;;;;11.04;70.53;98841.47;1692552;83;21056;-36
2021/09/25 04:51:52;;;;;;;3.62;1.20;;;;;;;11.06;70.46;98841.88;1702485;84;21021;-36
2021/09/25 04:54:19;;;;;;;3.87;1.10;;;;;;;11.05;70.29;98850.59;1700121;84;21014;-35
2021/09/25 04:56:45;;;;;;;6.33;1.30;;;;;;;11.05;70.43;98860.09;1693613;82;21093;-35
2021/09/25 04:59:12;;;;;;;9.55;1.32;;;;;;;11.05;70.62;98866.09;1700035;84;21110;-35
2021/09/25 05:01:38;;;;;;;3.08;1.30;;;;;;;11.06;70.63;98869.02;1715892;83;21606;-36
2021/09/25 05:04:07;;;;;;;4.65;1.72;;;;;;;11.08;70.53;98878.92;1687062;85;20932;-36
2021/09/25 05:06:33;;;;;;;6.17;2.08;;;;;;;11.07;70.63;98882.78;1704000;83;21011;-36
2021/09/25 05:08:59;;;;;;;4.05;1.20;;;;;;;11.09;70.64;98886.66;1719565;83;21554;-35
2021/09/25 05:11:26;;;;;;;3.65;1.42;;;;;;;11.10;70.45;98884.16;1702658;84;21107;-35
2021/09/25 05:13:52;;;;;;;3.72;1.60;;;;;;;11.08;70.61;98889.77;1692357;83;20981;-35
2021/09/25 05:16:19;;;;;;;5.97;1.60;;;;;;;11.07;70.80;98893.63;1692037;82;21535;-35
2021/09/25 05:18:45;;;;;;;6.00;1.60;;;;;;;11.10;70.82;98902.37;1720849;83;21060;-36
2021/09/25 05:21:12;;;;;;;3.87;1.37;;;;;;;11.14;70.70;98909.96;1694015;82;21551;-36
2021/09/25 05:23:38;;;;;;;5.60;1.60;;;;;;;11.16;70.61;98911.73;1715624;82;21052;-36
2021/09/25 05:26:05;;;;;;;3.85;1.40;;;;;;;11.18;70.55;98916.22;1715655;83;21001;-35
2021/09/25 05:28:32;;;;;;;7.97;1.65;;;;;;;11.19;70.62;98908.27;1720980;83;20973;-35
2021/09/25 05:30:59;;;;;;;4.25;1.30;;;;;;;11.23;70.42;98918.59;1721104;83;20960;-36
2021/09/25 05:33:25;;;;;;;3.67;1.22;;;;;;;11.25;70.40;98917.63;1720837;83;21764;-36
2021/09/25 05:35:52;;;;;;;4.05;1.60;;;;;;;11.27;70.32;98916.12;1720928;83;21031;-35
2021/09/25 05:38:18;;;;;;;4.72;1.52;;;;;;;11.29;70.25;98922.50;1707729;83;21108;-36
2021/09/25 05:40:45;;;;;;;6.03;1.40;;;;;;;11.27;70.31;98931.61;1714670;83;21578;-35
2021/09/25 05:43:12;;;;;;;4.45;1.60;;;;;;;11.25;70.47;98935.27;1696611;84;20982;-36
2021/09/25 05:45:38;;;;;;;7.05;1.70;;;;;;;11.25;70.45;98942.05;1702434;84;21544;-36
2021/09/25 05:48:06;;;;;;;6.58;1.70;;;;;;;11.27;70.59;98952.75;1681026;82;21136;-36
2021/09/25 05:50:32;;;;;;;8.78;1.80;;;;;;;11.35;70.50;98959.01;1745388;80;21008;-35
2021/09/25 05:52:59;;;;;;;5.42;1.45;;;;;;;11.39;70.37;98954.97;1714920;83;21460;-35
2021/09/25 05:55:25;;;;;;;4.67;1.70;;;;;;;11.40;70.42;98958.67;1751202;82;21045;-36
2021/09/25 05:57:56;;;;;;;5.10;1.57;;;;;;;11.44;70.42;98958.69;1751052;82;21033;-36
2021/09/25 06:00:20;;;;;;;4.50;1.70;;;;;;;11.49;70.45;98959.71;1750784;81;21595;-36
2021/09/25 06:02:46;;;;;;;5.45;1.85;;;;;;;11.57;70.06;98955.92;1715219;83;20917;-36
2021/09/25 06:05:13;;;;;;;3.62;1.60;;;;;;;11.64;70.06;98962.17;1714965;83;21230;-36
2021/09/25 06:07:40;;;;;;;5.60;1.80;;;;;;;11.65;69.65;98969.17;1751187;82;21045;-35
2021/09/25 06:10:08;;;;;;;6.15;1.70;;;;;;;11.64;70.04;98966.25;1715120;83;21571;-35
2021/09/25 06:12:35;;;;;;;5.00;1.70;;;;;;;11.63;69.99;98971.47;1751147;81;21075;-36
2021/09/25 06:15:02;;;;;;;5.70;1.65;;;;;;;11.62;70.11;98969.91;1714940;83;21526;-35
2021/09/25 06:17:28;;;;;;;3.30;1.60;;;;;;;11.71;69.94;98966.29;1745422;80;21049;-36
2021/09/25 06:19:55;;;;;;;7.22;1.62;;;;;;;11.81;69.92;98966.80;1751301;82;21547;-36
2021/09/25 06:22:22;;;;;;;5.28;1.95;;;;;;;11.87;69.47;98974.78;1751426;82;21045;-36
2021/09/25 06:24:48;;;;;;;4.92;1.87;;;;;;;11.88;69.51;98974.41;1751119;82;21878;-36
2021/09/25 06:27:15;;;;;;;9.08;1.87;;;;;;;11.88;69.50;98978.48;1751109;82;20922;-36
2021/09/25 06:29:41;;;;;;;5.80;1.47;;;;;;;11.94;69.46;98979.70;1715120;83;20925;-36
2021/09/25 06:32:08;;;;;;;6.75;1.80;;;;;;;12.01;69.01;98977.59;1751212;81;21548;-36
2021/09/25 06:34:35;;;;;;;6.50;1.65;;;;;;;12.04;69.15;98976.86;1751235;81;21085;-36
2021/09/25 06:37:04;;;;;;;7.47;1.70;;;;;;;12.06;69.10;98975.31;1715207;83;21464;-36
2021/09/25 06:39:30;;;;;;;6.60;2.00;;;;;;;12.08;69.27;98980.37;1743507;81;20986;-36
2021/09/25 06:41:58;;;;;;;8.33;1.80;;;;;;;12.11;69.36;98983.11;1740820;82;21519;-36
2021/09/25 06:44:24;;;;;;;5.33;2.05;;;;;;;11.89;69.02;98948.81;1715038;83;20940;-35
2021/09/25 06:46:51;;;;;;;7.28;2.17;;;;;;;12.30;69.00;98997.58;1714919;83;21061;-36
2021/09/25 06:49:18;;;;;;;5.42;1.70;;;;;;;12.36;68.43;98998.21;1709283;83;21893;-35
2021/09/25 06:51:44;;;;;;;7.70;1.90;;;;;;;12.37;68.33;99006.57;1707275;84;20994;-36
2021/09/25 06:54:13;;;;;;;5.90;1.72;;;;;;;12.39;68.50;99013.00;1743428;81;21025;-36
2021/09/25 06:56:40;;;;;;;6.50;1.75;;;;;;;12.40;68.50;99013.95;1741355;80;21030;-36
2021/09/25 06:59:08;;;;;;;5.50;1.90;;;;;;;12.47;68.54;99016.73;1736285;80;21029;-36
2021/09/25 07:01:34;;;;;;;5.92;1.70;;;;;;;12.58;67.93;99018.16;1679201;85;21162;-36
2021/09/25 07:04:01;;;;;;;5.80;1.85;;;;;;;12.62;67.47;99022.45;1678878;85;21599;-36
2021/09/25 07:06:28;;;;;;;6.72;1.75;;;;;;;12.65;67.76;99027.70;1691815;84;21033;-35
2021/09/25 07:08:56;;;;;;;8.83;1.82;;;;;;;12.71;67.55;99015.88;1732838;82;21505;-36
2021/09/25 07:11:24;;;;;;;7.42;1.55;;;;;;;12.77;67.52;99018.44;1743321;81;21081;-36
2021/09/25 07:13:50;;;;;;;6.00;1.95;;;;;;;12.82;67.02;99020.80;1743292;82;21810;-36
2021/09/25 07:16:17;;;;;;;7.92;1.90;;;;;;;12.85;66.58;99025.45;1743431;82;20946;-36
2021/09/25 07:18:44;;;;;;;5.55;1.80;;;;;;;12.88;66.32;99020.60;1743261;82;21013;-36
2021/09/25 07:21:12;;;;;;;6.67;2.37;;;;;;;12.90;66.79;99027.23;1743337;81;21005;-36
2021/09/25 07:23:40;;;;;;;5.72;1.90;;;;;;;12.95;66.81;99039.11;1707443;84;20990;-36
2021/09/25 07:26:06;;;;;;;5.00;1.95;;;;;;;12.98;66.59;99033.47;1742039;80;21906;-36
2021/09/25 07:28:33;;;;;;;9.15;2.35;;;;;;;13.03;66.18;99035.83;1707429;84;20940;-36
2021/09/25 07:31:03;;;;;;;6.08;1.80;;;;;;;13.08;65.75;99038.95;1743402;81;21044;-36
2021/09/25 07:33:30;;;;;;;7.83;2.20;;;;;;;13.09;65.35;99038.38;1707514;84;21088;-36
2021/09/25 07:35:56;;;;;;;6.05;2.30;;;;;;;13.06;65.81;99039.94;1743363;82;21549;-36
2021/09/25 07:38:23;;;;;;;7.53;2.55;;;;;;;13.03;65.94;99042.05;1704883;84;21154;-36
2021/09/25 07:40:52;;;;;;;4.30;1.72;;;;;;;13.03;65.69;99042.63;1681863;85;21043;-36
2021/09/25 07:43:18;;;;;;;3.87;1.50;;;;;;;13.00;65.58;99046.13;1699623;84;21028;-36
2021/09/25 07:45:44;;;;;;;7.58;2.00;;;;;;;13.01;65.80;99044.97;1694925;84;21073;-36
2021/09/25 07:48:11;;;;;;;8.13;2.02;;;;;;;13.06;65.61;99047.33;1694776;83;21267;-36
2021/09/25 07:50:38;;;;;;;3.90;1.72;;;;;;;13.08;66.03;99051.20;1694790;84;21082;-36
2021/09/25 07:53:04;;;;;;;7.42;1.98;;;;;;;13.14;66.11;99058.45;1694891;84;21543;-36
2021/09/25 07:55:31;;;;;;;7.15;1.80;;;;;;;13.20;66.04;99050.13;1689896;84;20966;-36
2021/09/25 07:57:58;;;;;;;5.17;1.77;;;;;;;13.25;65.84;99057.92;1678957;85;21579;-36
2021/09/25 08:00:25;;;;;;;5.53;1.82;;;;;;;13.25;65.03;99053.84;1678945;85;21017;-36
2021/09/25 08:02:51;;;;;;;7.10;2.02;;;;;;;13.29;65.46;99066.88;1678753;85;21205;-36
2021/09/25 08:05:18;;;;;;;4.53;1.70;;;;;;;13.36;65.79;99062.04;1678695;85;21025;-36
2021/09/25 08:07:45;;;;;;;5.12;1.85;;;;;;;13.39;65.30;99066.13;1670085;85;21570;-36
2021/09/25 08:10:14;;;;;;;3.90;1.60;;;;;;;13.45;65.45;99052.92;1698890;83;21044;-36
2021/09/25 08:12:41;;;;;;;5.25;1.60;;;;;;;13.49;64.60;99058.56;1698456;84;20993;-36
2021/09/25 08:15:09;;;;;;;8.78;1.75;;;;;;;13.48;64.47;99063.81;1698627;84;21087;-36
2021/09/25 08:17:36;;;;;;;6.75;1.70;;;;;;;13.52;64.89;99062.45;1698199;84;21101;-36
2021/09/25 08:20:06;;;;;;;10.70;1.67;;;;;;;13.67;65.01;99064.62;1698600;84;20976;-36
2021/09/25 08:22:34;;;;;;;6.10;1.92;;;;;;;13.80;64.55;99068.52;1698348;84;21041;-36
2021/09/25 08:25:00;;;;;;;4.50;1.50;;;;;;;13.85;64.21;99072.23;1702242;82;21065;-36
2021/09/25 08:27:27;;;;;;;10.68;2.15;;;;;;;13.89;63.21;99067.59;1713308;83;21170;-36
2021/09/25 08:29:53;;;;;;;5.17;2.02;;;;;;;13.90;63.46;99072.63;1713255;83;21036;-36
2021/09/25 08:32:20;;;;;;;4.30;1.90;;;;;;;13.94;63.78;99076.73;1713446;83;21523;-36
2021/09/25 08:34:47;;;;;;;6.22;2.05;;;;;;;13.98;63.39;99079.46;1713997;82;20994;-36
2021/09/25 08:37:14;;;;;;;5.72;2.02;;;;;;;14.03;63.17;99073.63;1713584;82;21009;-36
2021/09/25 08:39:40;;;;;;;5.25;1.80;;;;;;;14.13;62.12;99077.72;1742999;82;21972;-36
2021/09/25 08:42:10;;;;;;;4.28;1.45;;;;;;;14.20;61.79;99073.61;1742895;82;20986;-36
2021/09/25 08:44:36;;;;;;;5.22;2.02;;;;;;;14.22;61.68;99080.83;1714139;82;21037;-36
2021/09/25 08:47:03;;;;;;;6.00;1.80;;;;;;;14.28;61.77;99083.34;1742078;82;21063;-36
2021/09/25 08:49:30;;;;;;;4.72;1.50;;;;;;;14.30;60.59;99082.38;1721785;81;21020;-36
2021/09/25 08:51:56;;;;;;;6.45;1.80;;;;;;;14.30;60.77;99089.19;1726459;83;21105;-36
2021/09/25 08:54:23;;;;;;;7.17;1.80;;;;;;;14.29;60.60;99089.57;1726672;83;20944;-36
2021/09/25 08:56:50;;;;;;;5.42;1.80;;;;;;;14.26;61.08;99095.23;1726499;83;21092;-36
2021/09/25 08:59:16;;;;;;;4.85;1.77;;;;;;;14.25;61.31;99104.58;1726353;83;20977;-36
2021/09/25 09:01:43;;;;;;;4.47;1.65;;;;;;;14.28;61.41;99102.42;1726519;83;21056;-36
2021/09/25 09:04:10;;;;;;;5.30;1.67;;;;;;;14.35;61.65;99111.20;1726364;83;21860;-36
2021/09/25 09:06:37;;;;;;;5.37;1.87;;;;;;;14.38;61.24;99111.05;1726208;83;21507;-36
2021/09/25 09:09:07;;;;;;;6.15;2.00;;;;;;;14.39;61.40;99120.77;1726415;81;20971;-36
2021/09/25 09:11:44;;;;;;;5.12;1.55;;;;;;;14.39;61.92;99118.03;1726419;83;21043;-36
2021/09/25 09:14:16;;;;;;;6.85;1.77;;;;;;;14.31;62.45;99116.66;1701749;83;21538;-36
2021/09/25 09:16:44;;;;;;;5.33;1.50;;;;;;;14.19;62.68;99127.94;1727261;81;21118;-36
2021/09/25 09:19:17;;;;;;;5.97;1.50;;;;;;;14.11;63.59;99126.39;1726937;81;21044;-36
2021/09/25 09:21:43;;;;;;;4.58;1.60;;;;;;;14.12;63.75;99122.50;1756546;81;20929;-36
2021/09/25 09:24:14;;;;;;;6.42;2.20;;;;;;;14.16;64.26;99127.36;1750825;81;21008;-36
2021/09/25 09:26:39;;;;;;;5.65;1.85;;;;;;;14.19;64.07;99130.66;1756276;81;21024;-36
2021/09/25 09:29:07;;;;;;;5.70;1.77;;;;;;;14.15;64.17;99127.16;1756661;81;21147;-36
2021/09/25 09:31:38;;;;;;;7.20;1.87;;;;;;;14.16;64.31;99127.36;1756416;81;21063;-36
2021/09/25 09:34:06;;;;;;;8.70;2.40;;;;;;;14.18;64.53;99126.41;1756596;81;20937;-36
2021/09/25 09:36:41;;;;;;;5.83;1.80;;;;;;;14.24;63.61;99111.77;1734331;81;21008;-36
2021/09/25 09:39:16;;;;;;;6.47;2.10;;;;;;;14.29;62.93;99106.71;1726110;83;21040;-36
2021/09/25 09:41:52;;;;;;;7.00;2.22;;;;;;;14.26;63.21;99104.00;1726428;83;21848;-36
2021/09/25 09:44:33;;;;;;;6.60;2.08;;;;;;;14.21;63.09;99091.53;1726307;81;21049;-36
2021/09/25 09:47:08;;;;;;;5.05;2.20;;;;;;;14.16;62.56;99096.59;1726703;83;21024;-36
2021/09/25 09:49:38;;;;;;;8.00;2.37;;;;;;;14.12;62.88;99094.45;1722909;82;21554;-36
2021/09/25 09:52:11;;;;;;;7.05;2.20;;;;;;;14.09;62.53;99088.40;1719318;83;21099;-36
2021/09/25 09:54:46;;;;;;;5.55;2.08;;;;;;;14.09;63.32;99091.12;1719008;83;21075;-36
2021/09/25 09:57:17;;;;;;;8.35;2.22;;;;;;;14.15;63.21;99082.18;1719603;82;20965;-36
2021/09/25 09:59:46;;;;;;;8.05;2.17;;;;;;;14.22;62.16;99081.41;1718808;83;21084;-36
2021/09/25 10:02:12;;;;;;;7.53;2.25;;;;;;;14.19;62.04;99078.86;1719205;83;21024;-35
2021/09/25 10:04:39;;;;;;;6.03;1.92;;;;;;;14.23;62.37;99078.88;1718933;83;20997;-36
2021/09/25 10:07:06;;;;;;;7.30;2.40;;;;;;;14.29;62.48;99075.94;1719056;83;21796;-36
2021/09/25 10:09:35;;;;;;;7.85;2.50;;;;;;;14.38;63.01;99080.44;1718967;82;20982;-36
2021/09/25 10:12:12;;;;;;;8.10;2.40;;;;;;;14.48;62.09;99076.92;1718933;83;21021;-36
2021/09/25 10:14:41;;;;;;;7.17;2.40;;;;;;;14.62;62.48;99081.60;1719395;82;20989;-36
2021/09/25 10:17:10;;;;;;;8.08;2.52;;;;;;;14.75;61.42;99073.96;1719037;83;21013;-36
2021/09/25 10:19:39;;;;;;;7.20;2.98;;;;;;;14.84;60.77;99085.05;1719000;83;21124;-36
2021/09/25 10:22:20;;;;;;;7.30;2.72;;;;;;;14.95;61.69;99081.70;1718918;83;20957;-36
2021/09/25 10:25:04;;;;;;;9.63;2.90;;;;;;;15.06;60.46;99087.30;1718830;83;20937;-36
2021/09/25 10:27:40;;;;;;;6.97;2.77;;;;;;;15.12;60.01;99087.09;1717979;83;21088;-36
2021/09/25 10:30:10;;;;;;;7.78;2.70;;;;;;;15.23;59.57;99096.02;1719024;83;21013;-36
2021/09/25 10:32:53;;;;;;;11.90;3.62;;;;;;;15.34;59.05;99086.42;1718921;83;25373;-36
2021/09/25 10:35:24;;;;;;;6.75;3.00;;;;;;;15.44;58.81;99082.08;1739676;82;20917;-36
2021/09/25 10:37:56;;;;;;;11.22;2.98;;;;;;;15.52;58.50;99076.80;1710444;83;21076;-36
2021/09/25 10:40:29;;;;;;;7.33;2.67;;;;;;;15.53;57.92;99068.80;1748772;82;21041;-36
2021/09/25 10:43:16;;;;;;;7.83;3.17;;;;;;;15.47;58.27;99074.45;1748738;82;21025;-36
2021/09/25 10:45:43;;;;;;;11.25;2.67;;;;;;;15.37;58.16;99073.33;1732452;82;21171;-36
2021/09/25 10:48:28;;;;;;;9.25;2.77;;;;;;;15.26;58.42;99080.00;1718967;83;21020;-36
2021/09/25 10:51:01;;;;;;;9.60;3.25;;;;;;;15.16;58.74;99072.05;1707228;83;21088;-36
2021/09/25 10:53:42;;;;;;;16.50;3.70;;;;;;;15.09;59.62;99076.97;1705364;84;21077;-36
2021/09/25 10:56:25;;;;;;;10.53;3.50;;;;;;;15.07;60.41;99071.12;1705631;83;21049;-36
2021/09/25 10:59:00;;;;;;;10.88;3.27;;;;;;;15.10;60.27;99070.31;1705435;84;21136;-36
2021/09/25 11:04:37;;;;;;;8.98;2.85;;;;;;;15.10;58.92;99078.50;1835938;78;22599;-34
2021/09/25 11:07:08;;;;;;;9.30;2.87;;;;;;;15.03;59.71;99081.28;1805941;79;21501;-35
2021/09/25 11:09:36;;;;;;;9.88;3.58;;;;;;;15.00;59.62;99087.54;1769519;79;21126;-35
2021/09/25 11:12:07;;;;;;;;;;;;;;;14.96;59.44;99083.27;1769342;79;21471;-35
2021/09/25 11:14:44;;;;;;;11.43;3.00;;;;;;;14.91;59.93;99074.87;1783265;80;20121;-35
2021/09/25 11:17:27;;;;;;;7.42;3.02;;;;;;;14.85;61.10;99077.84;1784112;80;20974;-34
2021/09/25 11:20:02;;;;;;;10.75;3.22;;;;;;;14.96;59.67;99066.89;1783261;80;20937;-34
2021/09/25 11:22:47;;;;;;;10.85;3.35;;;;;;;15.08;59.67;99075.41;1783737;80;21192;-35
2021/09/25 11:25:18;;;;;;;11.65;3.98;;;;;;;15.14;58.73;99069.73;1784213;79;20950;-34
2021/09/25 11:27:51;;;;;;;14.25;3.42;;;;;;;15.19;58.03;99068.55;1784134;79;20957;-35
2021/09/25 11:30:21;;;;;;;12.75;3.52;;;;;;;15.23;57.70;99067.35;1784166;80;21528;-35
2021/09/25 11:32:56;;;;;;;14.23;3.40;;;;;;;15.32;58.14;99071.01;1784269;80;21012;-35
2021/09/25 11:35:32;;;;;;;14.65;3.72;;;;;;;15.44;58.92;99066.45;1783973;79;21125;-35
2021/09/25 11:38:13;;;;;;;10.68;3.42;;;;;;;15.57;57.71;99083.20;1784089;80;20965;-35
2021/09/25 11:40:50;;;;;;;12.85;3.90;;;;;;;15.68;56.49;99088.03;1784335;79;21661;-35